Terminal Aerodrome Forecast
Issued by NWS

Home | Current Version | Previous Version | Text Only | Print | Product List | Glossary On
Versions: 1 2 3 4 5 6 7 8 9 10 11 12 13 14
000
FTAK31 PAJN 050532
TAFAYA
TAF
PAYA 050532Z 0506/0606 07007KT P6SM -RA BKN030 OVC040 WS020/11025KT
     FM051600 06004KT 6SM -SHRA BKN030 OVC040
     FM052100 06005KT P6SM -SHRA SCT030 OVC040
     FM060000 06005KT P6SM VCSH SCT030 OVC040
      AMD LTD TO CLD VIS AND WIND 0506/0510=

USA.gov is the U.S. government's official web portal to all federal, state and local government web resources and services.